createdAt,value
2019-05-23T00:02:15.682Z,1.47
2019-05-23T00:05:16.884Z,1.70
2019-05-23T00:08:08.819Z,2.10
2019-05-23T00:11:22.023Z,1.83
2019-05-23T00:14:22.470Z,1.40
2019-05-23T00:17:14.307Z,1.67
2019-05-23T00:20:02.216Z,1.80
2019-05-23T00:22:51.303Z,2.07
2019-05-23T00:25:40.387Z,1.93
2019-05-23T00:28:28.010Z,1.80
2019-05-23T00:31:40.857Z,2.17
2019-05-23T00:34:29.865Z,1.97
2019-05-23T00:37:17.822Z,1.90
2019-05-23T00:40:06.362Z,1.90
2019-05-23T00:42:54.843Z,2.10
2019-05-23T00:45:43.430Z,2.10
2019-05-23T00:48:31.865Z,1.70
2019-05-23T00:51:21.461Z,2.10
2019-05-23T00:54:09.239Z,1.93
2019-05-23T00:56:57.062Z,1.90
2019-05-23T00:59:45.219Z,2.17
2019-05-23T01:02:33.982Z,2.23
2019-05-23T01:05:22.301Z,2.73
2019-05-23T01:08:10.557Z,2.47
2019-05-23T01:10:58.439Z,2.30
2019-05-23T01:13:46.277Z,2.90
2019-05-23T01:16:34.153Z,3.20
2019-05-23T01:19:21.637Z,2.97
2019-05-23T01:22:11.399Z,3.37
2019-05-23T01:24:59.472Z,3.33
2019-05-23T01:27:47.194Z,3.70
2019-05-23T01:30:41.210Z,3.20
2019-05-23T01:33:29.137Z,3.77
2019-05-23T01:36:17.617Z,3.40
2019-05-23T01:39:08.566Z,2.40
2019-05-23T01:41:56.630Z,2.50
2019-05-23T01:44:44.704Z,2.60
2019-05-23T01:47:32.375Z,2.93
2019-05-23T01:50:25.324Z,2.70
2019-05-23T01:53:13.979Z,2.80
2019-05-23T01:56:01.268Z,3.00
2019-05-23T01:58:48.931Z,2.50
2019-05-23T02:01:37.562Z,2.70
2019-05-23T02:04:24.938Z,2.30
2019-05-23T02:07:13.656Z,2.67
2019-05-23T02:10:01.044Z,2.83
2019-05-23T02:12:48.720Z,3.00
2019-05-23T02:15:36.908Z,2.90
2019-05-23T02:18:26.408Z,2.57
2019-05-23T02:21:15.860Z,3.40
2019-05-23T02:24:05.129Z,3.40
2019-05-23T02:26:52.806Z,3.10
2019-05-23T02:29:41.919Z,2.93
2019-05-23T02:32:31.061Z,3.13
2019-05-23T02:35:19.542Z,3.40
2019-05-23T02:38:28.664Z,2.70
2019-05-23T02:41:28.736Z,2.83
2019-05-23T02:44:21.227Z,3.43
2019-05-23T02:47:26.311Z,3.30
2019-05-23T02:50:22.390Z,3.60
2019-05-23T02:53:13.527Z,3.40
2019-05-23T02:56:05.445Z,3.03
2019-05-23T02:59:28.959Z,2.90
2019-05-23T03:02:45.752Z,3.37
2019-05-23T03:05:37.186Z,3.40
2019-05-23T03:08:25.176Z,3.30
2019-05-23T03:11:36.602Z,3.53
2019-05-23T03:14:26.041Z,3.57
2019-05-23T03:17:16.343Z,3.70
2019-05-23T03:20:06.181Z,3.30
2019-05-23T03:22:58.650Z,3.67
2019-05-23T03:26:34.726Z,3.30
2019-05-23T03:29:22.778Z,3.20
2019-05-23T03:32:37.337Z,3.50
2019-05-23T03:35:33.230Z,4.37
2019-05-23T03:38:20.792Z,3.53
2019-05-23T03:41:08.429Z,3.97
2019-05-23T03:43:57.020Z,4.33
2019-05-23T03:46:47.036Z,5.27
2019-05-23T03:49:34.962Z,4.80
2019-05-23T03:52:23.827Z,4.77
2019-05-23T03:55:11.899Z,4.90
2019-05-23T03:58:00.872Z,4.00
2019-05-23T04:00:52.555Z,4.67
2019-05-23T04:03:42.320Z,4.83
2019-05-23T04:06:30.188Z,4.23
2019-05-23T04:09:17.918Z,4.93
2019-05-23T04:12:06.006Z,4.97
2019-05-23T04:14:53.776Z,5.13
2019-05-23T04:17:41.291Z,4.90
2019-05-23T04:20:28.325Z,4.60
2019-05-23T04:23:17.815Z,5.03
2019-05-23T04:26:06.059Z,4.90
2019-05-23T04:28:53.607Z,5.10
2019-05-23T04:31:41.059Z,5.47
2019-05-23T04:34:29.601Z,5.33
2019-05-23T04:37:17.013Z,5.00
2019-05-23T04:40:06.835Z,6.07
2019-05-23T04:42:54.444Z,5.90
2019-05-23T04:45:43.720Z,6.97
2019-05-23T04:48:31.097Z,6.07
2019-05-23T04:51:20.763Z,5.93
2019-05-23T04:54:08.783Z,6.53
2019-05-23T04:56:56.535Z,6.60
2019-05-23T04:59:44.870Z,5.90
2019-05-23T05:02:31.922Z,6.03
2019-05-23T05:05:19.465Z,5.70
2019-05-23T05:08:07.194Z,6.40
2019-05-23T05:10:55.100Z,4.90
2019-05-23T05:13:43.546Z,5.47
2019-05-23T05:16:31.713Z,5.73
2019-05-23T05:19:19.860Z,4.83
2019-05-23T05:22:07.566Z,4.60
2019-05-23T05:24:55.266Z,3.80
2019-05-23T05:27:42.656Z,4.10
2019-05-23T05:30:30.536Z,4.03
2019-05-23T05:33:18.518Z,3.80
2019-05-23T05:36:07.722Z,4.20
2019-05-23T05:38:55.262Z,4.07
2019-05-23T05:41:43.335Z,3.50
2019-05-23T05:44:30.657Z,3.93
2019-05-23T05:47:19.414Z,3.70
2019-05-23T05:50:08.449Z,4.37
2019-05-23T05:52:55.726Z,4.10
2019-05-23T05:55:42.945Z,4.60
2019-05-23T05:58:30.430Z,4.53
2019-05-23T06:01:32.713Z,4.77
2019-05-23T06:04:07.082Z,5.50
2019-05-23T06:07:00.717Z,5.60
2019-05-23T06:09:49.216Z,4.83
2019-05-23T06:12:36.701Z,4.03
2019-05-23T06:15:25.292Z,3.87
2019-05-23T06:18:13.016Z,4.47
2019-05-23T06:21:01.296Z,3.53
2019-05-23T06:23:51.129Z,4.40
2019-05-23T06:26:38.505Z,4.40
2019-05-23T06:29:25.944Z,5.13
2019-05-23T06:32:16.927Z,4.83
2019-05-23T06:35:05.677Z,5.70
2019-05-23T06:37:53.513Z,5.20
2019-05-23T06:40:42.819Z,5.47
2019-05-23T06:43:31.203Z,5.17
2019-05-23T06:46:18.706Z,5.73
2019-05-23T06:49:06.313Z,5.97
2019-05-23T06:51:53.835Z,6.23
2019-05-23T06:54:41.298Z,5.67
2019-05-23T06:57:28.807Z,6.03
2019-05-23T07:00:18.690Z,5.17
2019-05-23T07:03:06.086Z,5.67
2019-05-23T07:05:53.744Z,5.40
2019-05-23T07:08:41.500Z,5.37
2019-05-23T07:11:29.364Z,5.73
2019-05-23T07:14:17.513Z,6.33
2019-05-23T07:17:05.933Z,5.20
2019-05-23T07:19:53.349Z,6.97
2019-05-23T07:22:41.614Z,6.93
2019-05-23T07:25:29.745Z,7.20
2019-05-23T07:28:17.251Z,6.47
2019-05-23T07:31:04.862Z,8.00
2019-05-23T07:34:01.930Z,7.67
2019-05-23T07:36:41.460Z,7.33
2019-05-23T07:39:29.587Z,7.77
2019-05-23T07:42:17.300Z,7.60
2019-05-23T07:45:06.294Z,8.10
2019-05-23T07:47:55.596Z,7.73
2019-05-23T07:50:43.076Z,6.93
2019-05-23T07:54:01.536Z,7.93
2019-05-23T07:56:49.791Z,6.50
2019-05-23T07:59:37.007Z,6.90
2019-05-23T08:02:34.018Z,7.70
2019-05-23T08:05:22.151Z,7.33
2019-05-23T08:08:10.539Z,7.93
2019-05-23T08:10:57.873Z,7.10
2019-05-23T08:13:45.492Z,6.97
2019-05-23T08:16:33.507Z,7.90
2019-05-23T08:19:21.325Z,7.83
2019-05-23T08:22:08.954Z,7.47
2019-05-23T08:24:56.371Z,7.40
2019-05-23T08:27:44.215Z,7.87
2019-05-23T08:30:32.037Z,8.10
2019-05-23T08:33:19.177Z,8.37
2019-05-23T08:36:07.543Z,8.43
2019-05-23T08:38:55.521Z,6.77
2019-05-23T08:41:43.003Z,7.33
2019-05-23T08:44:30.860Z,7.93
2019-05-23T08:47:18.321Z,7.50
2019-05-23T08:50:07.833Z,7.17
2019-05-23T08:52:56.268Z,7.80
2019-05-23T08:55:49.793Z,6.93
2019-05-23T08:58:37.136Z,7.37
2019-05-23T09:01:25.122Z,7.10
2019-05-23T09:04:12.801Z,7.70
2019-05-23T09:07:01.390Z,6.90
2019-05-23T09:09:49.289Z,7.50
2019-05-23T09:12:37.355Z,7.43
2019-05-23T09:15:25.347Z,6.53
2019-05-23T09:18:13.374Z,7.00
2019-05-23T09:21:01.121Z,7.37
2019-05-23T09:23:48.693Z,6.63
2019-05-23T09:26:36.249Z,6.50
2019-05-23T09:29:24.067Z,7.10
2019-05-23T09:32:11.615Z,7.73
2019-05-23T09:35:01.434Z,7.97
2019-05-23T09:37:49.630Z,8.13
2019-05-23T09:40:36.843Z,8.07
2019-05-23T09:43:24.213Z,7.37
2019-05-23T09:46:11.913Z,7.20
2019-05-23T09:49:00.430Z,7.33
2019-05-23T09:51:49.241Z,7.00
2019-05-23T09:54:36.769Z,7.03
2019-05-23T09:57:25.031Z,6.67
2019-05-23T10:00:15.209Z,7.03
2019-05-23T10:03:03.146Z,6.53
2019-05-23T10:05:52.335Z,6.50
2019-05-23T10:08:39.732Z,6.77
2019-05-23T10:11:27.683Z,7.20
2019-05-23T10:14:20.503Z,6.67
2019-05-23T10:17:07.961Z,6.60
2019-05-23T10:19:55.648Z,6.87
2019-05-23T10:22:43.475Z,6.70
2019-05-23T10:25:30.776Z,6.97
2019-05-23T10:28:18.742Z,6.97
2019-05-23T10:31:08.051Z,5.77
2019-05-23T10:33:56.630Z,6.50
2019-05-23T10:36:44.084Z,6.93
2019-05-23T10:39:32.280Z,6.43
2019-05-23T10:42:19.885Z,5.73
2019-05-23T10:45:08.803Z,5.27
2019-05-23T10:47:56.305Z,5.47
2019-05-23T10:50:45.342Z,4.63
2019-05-23T10:53:32.826Z,4.40
2019-05-23T10:56:21.765Z,5.63
2019-05-23T10:59:08.876Z,4.97
2019-05-23T11:01:56.713Z,5.63
2019-05-23T11:04:44.319Z,5.63
2019-05-23T11:07:31.653Z,5.30
2019-05-23T11:10:19.078Z,4.10
2019-05-23T11:13:06.594Z,4.27
2019-05-23T11:15:54.521Z,5.30
2019-05-23T11:18:42.006Z,5.33
2019-05-23T11:21:29.813Z,5.10
2019-05-23T11:24:18.335Z,5.03
2019-05-23T11:27:05.971Z,4.07
2019-05-23T11:29:53.315Z,4.87
2019-05-23T11:32:41.190Z,4.53
2019-05-23T11:35:29.518Z,4.90
2019-05-23T11:38:17.797Z,4.30
2019-05-23T11:41:05.209Z,4.40
2019-05-23T11:43:53.339Z,3.70
2019-05-23T11:46:40.778Z,4.10
2019-05-23T11:49:28.215Z,3.70
2019-05-23T11:52:16.447Z,4.67
2019-05-23T11:55:03.953Z,3.70
2019-05-23T11:57:51.821Z,3.63
2019-05-23T12:01:28.006Z,3.67
2019-05-23T12:04:17.409Z,4.20
2019-05-23T12:07:21.620Z,4.30
2019-05-23T12:10:09.316Z,3.77
2019-05-23T12:12:56.880Z,3.63
2019-05-23T12:15:45.066Z,3.93
2019-05-23T12:18:32.377Z,3.80
2019-05-23T12:21:20.543Z,3.63
2019-05-23T12:24:09.202Z,3.43
2019-05-23T12:26:56.241Z,3.47
2019-05-23T12:29:44.686Z,2.70
2019-05-23T12:32:32.278Z,3.23
2019-05-23T12:35:19.829Z,3.33
2019-05-23T12:38:06.802Z,3.00
2019-05-23T12:40:55.320Z,3.07
2019-05-23T12:43:42.841Z,3.97
2019-05-23T12:46:33.114Z,3.93
2019-05-23T12:49:26.255Z,3.87
2019-05-23T12:52:14.862Z,3.93
2019-05-23T12:55:02.949Z,3.60
2019-05-23T12:57:50.626Z,3.43
2019-05-23T13:00:49.752Z,4.10
2019-05-23T13:03:37.299Z,4.10
2019-05-23T13:06:25.463Z,3.57
2019-05-23T13:09:13.222Z,3.23
2019-05-23T13:12:00.558Z,3.83
2019-05-23T13:14:47.962Z,4.40
2019-05-23T13:17:35.444Z,3.57
2019-05-23T13:20:23.523Z,3.00
2019-05-23T13:23:20.410Z,3.97
2019-05-23T13:26:00.531Z,3.70
2019-05-23T13:28:48.262Z,3.90
2019-05-23T13:31:35.659Z,3.10
2019-05-23T13:34:22.983Z,3.43
2019-05-23T13:37:16.126Z,3.00
2019-05-23T13:40:00.610Z,3.57
2019-05-23T13:42:48.397Z,3.07
2019-05-23T13:45:35.539Z,3.80
2019-05-23T13:48:28.034Z,3.23
2019-05-23T13:51:16.936Z,4.10
2019-05-23T13:54:04.921Z,3.70
2019-05-23T13:57:02.577Z,3.47
2019-05-23T13:59:50.718Z,3.00
2019-05-23T14:02:38.791Z,3.23
2019-05-23T14:05:26.956Z,3.20
2019-05-23T14:08:18.833Z,3.47
2019-05-23T14:11:20.267Z,3.70
2019-05-23T14:14:08.128Z,3.30
2019-05-23T14:17:21.621Z,3.37
2019-05-23T14:20:09.924Z,3.20
2019-05-23T14:23:02.450Z,3.47
2019-05-23T14:25:49.834Z,3.67
2019-05-23T14:28:37.938Z,3.53
2019-05-23T14:31:25.817Z,3.67
2019-05-23T14:34:16.075Z,3.60
2019-05-23T14:37:19.257Z,3.60
2019-05-23T14:40:09.778Z,3.63
2019-05-23T14:43:06.535Z,3.00
2019-05-23T14:46:03.979Z,3.30
2019-05-23T14:49:07.367Z,3.53
2019-05-23T14:52:15.659Z,2.20
2019-05-23T14:55:10.196Z,3.17
2019-05-23T14:57:55.789Z,3.13
2019-05-23T15:00:44.994Z,3.07
2019-05-23T15:03:35.562Z,2.60
2019-05-23T15:06:22.347Z,2.77
2019-05-23T15:09:10.117Z,2.80
2019-05-23T15:11:57.413Z,2.50
2019-05-23T15:14:46.316Z,3.13
2019-05-23T15:17:33.887Z,3.10
2019-05-23T15:20:21.313Z,2.50
2019-05-23T15:23:09.136Z,3.10
2019-05-23T15:25:57.286Z,3.10
2019-05-23T15:28:45.106Z,2.87
2019-05-23T15:31:32.588Z,2.50
2019-05-23T15:34:19.956Z,2.50
2019-05-23T15:37:07.251Z,2.43
2019-05-23T15:39:54.273Z,2.90
2019-05-23T15:42:41.650Z,2.60
2019-05-23T15:45:29.710Z,2.40
2019-05-23T15:48:17.335Z,3.10
2019-05-23T15:51:06.872Z,3.17
2019-05-23T15:54:13.303Z,2.50
2019-05-23T15:57:13.886Z,2.40
2019-05-23T16:00:29.801Z,3.00
2019-05-23T16:03:34.572Z,2.57
2019-05-23T16:06:23.800Z,2.37
2019-05-23T16:09:27.509Z,3.20
2019-05-23T16:12:02.303Z,3.23
2019-05-23T16:14:49.782Z,3.07
2019-05-23T16:17:37.714Z,2.97
2019-05-23T16:20:25.191Z,2.90
2019-05-23T16:23:12.463Z,3.43
2019-05-23T16:26:00.029Z,3.03
2019-05-23T16:28:47.832Z,3.33
2019-05-23T16:31:35.427Z,2.40
2019-05-23T16:34:22.795Z,2.40
2019-05-23T16:37:09.841Z,2.57
2019-05-23T16:39:57.226Z,2.17
2019-05-23T16:42:44.634Z,2.33
2019-05-23T16:45:32.059Z,2.87
2019-05-23T16:48:19.810Z,2.90
2019-05-23T16:51:08.020Z,2.43
2019-05-23T16:53:55.774Z,3.90
2019-05-23T16:57:17.638Z,3.17
2019-05-23T17:00:26.047Z,2.20
2019-05-23T17:03:23.643Z,2.53
2019-05-23T17:06:29.255Z,2.67
2019-05-23T17:09:42.263Z,2.30
2019-05-23T17:12:37.033Z,2.10
2019-05-23T17:15:42.191Z,3.20
2019-05-23T17:18:41.970Z,2.23
2019-05-23T17:21:54.018Z,2.40
2019-05-23T17:24:49.137Z,2.67
2019-05-23T17:27:51.867Z,2.17
2019-05-23T17:30:48.657Z,2.03
2019-05-23T17:33:37.260Z,2.27
2019-05-23T17:36:25.469Z,2.37
2019-05-23T17:39:15.133Z,2.03
2019-05-23T17:42:03.580Z,2.60
2019-05-23T17:44:51.171Z,1.87
2019-05-23T17:47:38.311Z,2.00
2019-05-23T17:50:26.659Z,2.03
2019-05-23T17:53:14.843Z,2.53
2019-05-23T17:56:02.850Z,2.33
2019-05-23T17:58:50.834Z,2.00
2019-05-23T18:01:38.768Z,2.20
2019-05-23T18:04:26.523Z,2.37
2019-05-23T18:07:14.588Z,2.03
2019-05-23T18:10:02.726Z,2.10
2019-05-23T18:12:50.389Z,2.03
2019-05-23T18:15:40.423Z,2.10
2019-05-23T18:18:28.429Z,2.13
2019-05-23T18:21:16.677Z,1.90
2019-05-23T18:24:04.907Z,2.17
2019-05-23T18:26:52.439Z,1.97
2019-05-23T18:29:40.126Z,1.87
2019-05-23T18:32:28.589Z,2.03
2019-05-23T18:35:17.633Z,2.03
2019-05-23T18:38:07.557Z,2.17
2019-05-23T18:41:03.981Z,2.00
2019-05-23T18:43:45.052Z,1.80
2019-05-23T18:46:37.844Z,1.97
2019-05-23T18:49:25.700Z,1.80
2019-05-23T18:52:13.298Z,2.03
2019-05-23T18:55:00.530Z,2.17
2019-05-23T18:57:51.766Z,1.97
2019-05-23T19:01:00.427Z,2.53
2019-05-23T19:03:48.592Z,2.10
2019-05-23T19:06:36.733Z,2.40
2019-05-23T19:09:25.922Z,2.33
2019-05-23T19:12:15.494Z,2.33
2019-05-23T19:15:03.093Z,2.93
2019-05-23T19:17:50.414Z,2.50
2019-05-23T19:20:39.956Z,2.73
2019-05-23T19:23:27.504Z,1.97
2019-05-23T19:26:15.348Z,1.40
2019-05-23T19:29:03.274Z,2.57
2019-05-23T19:31:50.294Z,2.40
2019-05-23T19:34:38.576Z,2.00
2019-05-23T19:37:26.356Z,1.67
2019-05-23T19:40:13.829Z,1.53
2019-05-23T19:43:01.755Z,1.70
2019-05-23T19:45:49.812Z,1.70
2019-05-23T19:48:39.657Z,1.80
2019-05-23T19:51:28.475Z,1.70
2019-05-23T19:54:16.509Z,1.57
2019-05-23T19:57:03.709Z,1.70
2019-05-23T19:59:51.195Z,1.87
2019-05-23T20:02:53.798Z,1.30
2019-05-23T20:05:41.688Z,1.70
2019-05-23T20:08:29.254Z,1.70
2019-05-23T20:11:17.575Z,1.70
2019-05-23T20:14:05.259Z,1.47
2019-05-23T20:16:53.070Z,2.17
2019-05-23T20:19:40.452Z,1.60
2019-05-23T20:22:28.005Z,1.93
2019-05-23T20:25:16.543Z,1.93
2019-05-23T20:28:03.973Z,1.93
2019-05-23T20:30:52.766Z,2.10
2019-05-23T20:33:40.462Z,2.00
2019-05-23T20:36:28.701Z,1.70
2019-05-23T20:39:17.393Z,2.30
2019-05-23T20:42:11.548Z,2.77
2019-05-23T20:44:53.937Z,2.87
2019-05-23T20:47:41.375Z,2.90
2019-05-23T20:50:29.096Z,2.83
2019-05-23T20:53:17.041Z,2.37
2019-05-23T20:56:05.303Z,2.60
2019-05-23T20:58:52.941Z,2.07
2019-05-23T21:01:42.590Z,2.20
2019-05-23T21:04:30.021Z,2.60
2019-05-23T21:07:17.760Z,1.97
2019-05-23T21:10:05.596Z,2.83
2019-05-23T21:12:52.949Z,2.00
2019-05-23T21:15:41.714Z,2.27
2019-05-23T21:18:29.260Z,2.27
2019-05-23T21:21:16.946Z,2.07
2019-05-23T21:24:04.752Z,1.90
2019-05-23T21:26:52.271Z,2.27
2019-05-23T21:29:40.116Z,2.20
2019-05-23T21:32:27.367Z,2.30
2019-05-23T21:35:15.005Z,2.33
2019-05-23T21:38:02.636Z,2.40
2019-05-23T21:40:50.008Z,1.90
2019-05-23T21:43:37.634Z,2.40
2019-05-23T21:46:24.943Z,2.30
2019-05-23T21:49:13.304Z,2.60
2019-05-23T21:52:00.998Z,2.57
2019-05-23T21:54:50.311Z,2.40
2019-05-23T21:57:37.891Z,2.70
2019-05-23T22:00:48.705Z,2.90
2019-05-23T22:03:37.895Z,2.40
2019-05-23T22:06:28.115Z,2.63
2019-05-23T22:09:18.132Z,2.70
2019-05-23T22:12:12.521Z,2.50
2019-05-23T22:15:00.843Z,2.80
2019-05-23T22:17:49.546Z,2.87
2019-05-23T22:20:37.013Z,2.50
2019-05-23T22:23:25.919Z,3.20
2019-05-23T22:26:13.889Z,4.03
2019-05-23T22:29:01.511Z,3.40
2019-05-23T22:31:49.263Z,2.83
2019-05-23T22:35:01.838Z,2.90
2019-05-23T22:37:49.026Z,2.70
2019-05-23T22:40:38.517Z,2.73
2019-05-23T22:43:25.893Z,2.90
2019-05-23T22:46:13.841Z,2.93
2019-05-23T22:49:01.245Z,2.60
2019-05-23T22:51:48.598Z,2.80
2019-05-23T22:54:36.042Z,3.20
2019-05-23T22:57:23.366Z,3.10
2019-05-23T23:00:11.584Z,2.90
2019-05-23T23:02:59.075Z,2.90
2019-05-23T23:05:49.049Z,3.50
2019-05-23T23:08:37.233Z,3.13
2019-05-23T23:11:24.563Z,3.20
2019-05-23T23:14:12.329Z,2.97
2019-05-23T23:17:00.330Z,2.60
2019-05-23T23:19:47.815Z,2.80
2019-05-23T23:22:38.155Z,2.80
2019-05-23T23:25:25.200Z,2.67
2019-05-23T23:28:12.577Z,2.90
2019-05-23T23:31:00.040Z,2.83
2019-05-23T23:33:48.150Z,2.80
2019-05-23T23:36:35.995Z,3.10
2019-05-23T23:39:23.833Z,2.73
2019-05-23T23:42:11.472Z,2.53
2019-05-23T23:45:16.705Z,2.83
2019-05-23T23:48:21.214Z,2.50
2019-05-23T23:51:26.883Z,3.30
2019-05-23T23:54:32.246Z,2.67
2019-05-23T23:57:37.928Z,2.57
